Usk, WA (99180)

8:41 AM PDT on March 27, 2015 (GMT -0700)
SW Pend Orellie County | | Change Station
CLOSE
Current Station
Personal Weather Station
Location: Pend Oreille County, WA
Elevation: 2482 ft
Nearby Weather Stations

Elev 2482 ft 48.09 °N, 117.43 °W | Updated 24 seconds ago

Fog
Fog
42.3 °F
Feels Like 38 °F
N
7.8
Wind Variable Wind from North
Gusts 7.8 mph

Today
High -- | Low -- °F
--% Chance of Precip.
Yesterday
High -- | Low -- °F
Precip. -- in
6:37 AM 7:12 PM
First Quarter, 53% visible
Pressure 30.13 in
Visibility 2.0 miles
Clouds Overcast 200 ft
Windchill 38 °F
Dew Point 42 °F
Humidity 99%
Rainfall 0.00 in
Snow Depth Not available.
UV 0 out of 12
Pollen 8.90 out of 12
Air Quality Not available.
Flu Activity Not available.
SPECI KDEW 271529Z AUTO 02005KT 2SM BR OVC002 07/06 A3013 RMK AO2 T00670061

More Conditions Fewer Conditions

Pressure 30.13 in
Visibility 2.0 miles
Clouds Overcast 200 ft
Windchill 38 °F
Dew Point 42 °F
Humidity 99%
Rainfall 0.00 in
Snow Depth Not available.
UV 0 out of 12
Pollen 8.90 out of 12
Air Quality Not available.
Flu Activity Not available.
SPECI KDEW 271529Z AUTO 02005KT 2SM BR OVC002 07/06 A3013 RMK AO2 T00670061

More Conditions Fewer Conditions

Nowcast | as of 7:42 am PDT on March 27, 2015

Areas of fog will reduce visibilities to a half mile or less over portions of north Idaho and northeast Washington this morning. Motorists should be prepared for sudden changes in visibility along portions of Interstate 90 east of Spokane...Highway 2 west of Spokane and Highway 195 north of Spokane. The visibility should improve by 9 am as fog lifts and disperses.

×

10-Day Weather Forecast

Almanac

Astronomy

Mar. 27, 2015 Rise Set
Actual Time
Civil Twilight
Nautical Twilight
Astronomical Twilight
Moon
Length of Visible Light
Length of Day
Tomorrow will be .
, % of the Moon is Illuminated

Today's Extremes

State Highs State Lows

Community

WunderPhotos

Upload Photos

1,808,762 photos uploaded!

WunderBlogs® & News

Nearby

Air Quality

  Air Quality AQ Index Pollutant
Not available.

Snow Depth

Station Depth Elevation

Earthquake Activity

City Distance Mag. Time & Date
Minimum magnitude displayed is 2.5.

Coastal Water Temperatures

Place Temperature

Stations

Nearby Weather Stations

Station Location Temp. Windchill Dew Point Humidity Wind Precip. Elev Updated Type